Sugarloaf, CA (92386)

9:21 PM PDT on August 03, 2015 (GMT -0700)
Cottar's Cabin | | Change Station
CLOSE
Current Station
Personal Weather Station
Location: Big Bear, CA
Elevation: 7028 ft
Nearby Weather Stations

Elev 7028 ft 34.25 °N, 116.84 °W | Updated 11 minutes ago

Clear
Clear
60.8 °F
Feels Like 60.8 °F
N
1.7
Wind Variable Wind from SSW

Today
High -- | Low -- °F
--% Chance of Precip.
Yesterday
High -- | Low -- °F
Precip. -- in
5:59 AM 7:46 PM
Waning Gibbous, 81% visible
Pressure 30.24 in
Visibility 10.0 miles
Clouds Clear
Dew Point 29 °F
Humidity 30%
Rainfall 0.00 in
Snow Depth Not available.
UV 0 out of 12
Pollen 4.20 out of 12
Air Quality Not available.
Flu Activity Not available.
METAR KL35 040415Z AUTO 00000KT 10SM CLR 14/M01 A3024 RMK AO2

More Conditions Fewer Conditions

Pressure 30.24 in
Visibility 10.0 miles
Clouds Clear
Dew Point 29 °F
Humidity 30%
Rainfall 0.00 in
Snow Depth Not available.
UV 0 out of 12
Pollen 4.20 out of 12
Air Quality Not available.
Flu Activity Not available.
METAR KL35 040415Z AUTO 00000KT 10SM CLR 14/M01 A3024 RMK AO2

More Conditions Fewer Conditions

10-Day Weather Forecast

×

Almanac

Astronomy

Aug. 03, 2015 Rise Set
Actual Time
Civil Twilight
Nautical Twilight
Astronomical Twilight
Moon
Length of Visible Light
Length of Day
Tomorrow will be .
, % of the Moon is Illuminated

Today's Extremes

State Highs State Lows

Community

WunderPhotos

Upload Photos

1,843,861 photos uploaded!

WunderBlogs® & News

Nearby

Air Quality

  Air Quality AQ Index Pollutant
Not available.

Snow Depth

Station Depth Elevation

Earthquake Activity

City Distance Mag. Time & Date
Minimum magnitude displayed is 2.5.

Coastal Water Temperatures

Place Temperature

Stations

Nearby Weather Stations

Station Location Temp. Windchill Dew Point Humidity Wind Precip. Elev Updated Type